Time;durP1;ratioP1;P1;durP2;ratioP2;P2;SDS_P1;SDS_P2;PMS_P1;PMS_P2;Temp;Humidity;BMP_temperature;BMP_pressure;BME280_temperature;BME280_humidity;BME280_pressure;Samples;Min_cycle;Max_cycle;Signal;HPM_P1;HPM_P2
2022/05/13 00:00:22;;;;;;;;;;;12.50;89.70;;;;;;8391085;28;20022;-73
2022/05/13 00:04:24;;;;;;;;;;;12.50;89.80;;;;;;8394502;28;19959;-73
2022/05/13 00:08:26;;;;;;;;;;;12.40;90.00;;;;;;8383187;28;19925;-73
2022/05/13 00:12:28;;;;;;;;;;;12.30;89.90;;;;;;8389344;28;19925;-73
2022/05/13 00:16:30;;;;;;;;;;;12.30;89.90;;;;;;8387946;28;19924;-73
2022/05/13 00:20:31;;;;;;;;;;;12.30;90.00;;;;;;8411857;27;19924;-73
2022/05/13 00:24:33;;;;;;;;;;;12.30;90.00;;;;;;8385913;28;22384;-73
2022/05/13 00:28:35;;;;;;;;;;;12.40;90.30;;;;;;8389936;28;19921;-73
2022/05/13 00:32:37;;;;;;;;;;;12.50;90.30;;;;;;8394246;28;19971;-73
2022/05/13 00:36:38;;;;;;;;;;;12.40;90.20;;;;;;8386663;28;19921;-73
2022/05/13 00:40:40;;;;;;;;;;;12.40;90.10;;;;;;8390159;28;19924;-73
2022/05/13 00:44:42;;;;;;;;;;;12.30;90.20;;;;;;8400463;28;20406;-73
2022/05/13 00:48:44;;;;;;;;;;;12.20;90.30;;;;;;8384341;28;20269;-73
2022/05/13 00:52:48;;;;;;;;;;;12.10;90.40;;;;;;8383692;28;19932;-73
2022/05/13 00:56:50;;;;;;;;;;;12.10;90.70;;;;;;8404128;28;19921;-73
2022/05/13 01:00:51;;;;;;;;;;;12.10;91.10;;;;;;8386829;28;20249;-73
2022/05/13 01:04:53;;;;;;;;;;;12.00;91.10;;;;;;8387121;28;19947;-73
2022/05/13 01:08:56;;;;;;;;;;;11.90;91.00;;;;;;8382252;28;20390;-73
2022/05/13 01:12:58;;;;;;;;;;;11.90;91.60;;;;;;8386647;28;19943;-72
2022/05/13 01:21:39;;;;;;;;;;;11.80;92.90;;;;;;8380716;28;19970;-73
2022/05/13 01:25:43;;;;;;;;;;;11.70;92.80;;;;;;8389680;28;19931;-72
2022/05/13 01:29:44;;;;;;;;;;;11.70;92.80;;;;;;8391139;28;20429;-73
2022/05/13 01:33:46;;;;;;;;;;;11.70;93.30;;;;;;8383619;28;19932;-72
2022/05/13 01:37:48;;;;;;;;;;;11.70;93.90;;;;;;8410850;28;19927;-73
2022/05/13 01:41:49;;;;;;;;;;;11.70;94.40;;;;;;8385788;28;19921;-73
2022/05/13 01:45:51;;;;;;;;;;;11.70;95.30;;;;;;8389082;28;19924;-73
2022/05/13 01:49:53;;;;;;;;;;;11.70;94.80;;;;;;8388139;28;19920;-72
2022/05/13 01:53:55;;;;;;;;;;;11.70;95.00;;;;;;8391008;28;19919;-73
2022/05/13 01:57:56;;;;;;;;;;;11.70;95.80;;;;;;8388594;28;19920;-73
2022/05/13 02:01:58;;;;;;;;;;;11.70;95.60;;;;;;8385876;28;19920;-73
2022/05/13 02:06:00;;;;;;;;;;;11.70;95.60;;;;;;8377465;28;20390;-73
2022/05/13 02:10:02;;;;;;;;;;;11.70;96.20;;;;;;8382462;28;19924;-73
2022/05/13 02:14:04;;;;;;;;;;;11.80;96.70;;;;;;8387971;28;20295;-73
2022/05/13 02:18:06;;;;;;;;;;;11.80;97.20;;;;;;8378420;28;20000;-73
2022/05/13 02:22:08;;;;;;;;;;;11.80;97.30;;;;;;8388032;28;19920;-73
2022/05/13 02:26:10;;;;;;;;;;;11.80;97.50;;;;;;8374935;28;19947;-73
2022/05/13 02:30:12;;;;;;;;;;;11.90;97.70;;;;;;8376795;28;20277;-73
2022/05/13 02:34:14;;;;;;;;;;;11.90;99.50;;;;;;8396668;28;19924;-72
2022/05/13 02:38:16;;;;;;;;;;;11.90;98.70;;;;;;8384894;28;19921;-73
2022/05/13 02:42:18;;;;;;;;;;;12.00;99.70;;;;;;8384262;28;19931;-72
2022/05/13 02:46:27;;;;;;;;;;;12.00;99.00;;;;;;8386329;28;19956;-73
2022/05/13 02:50:29;;;;;;;;;;;12.00;99.90;;;;;;8378981;28;20299;-73
2022/05/13 02:54:31;;;;;;;;;;;12.00;99.90;;;;;;8381347;28;19924;-73
2022/05/13 02:58:34;;;;;;;;;;;12.00;99.90;;;;;;8372662;28;19936;-73
2022/05/13 03:02:35;;;;;;;;;;;12.10;99.90;;;;;;8376823;28;19921;-73
2022/05/13 03:06:37;;;;;;;;;;;12.10;99.90;;;;;;8380601;28;19939;-72
2022/05/13 03:10:39;;;;;;;;;;;12.10;99.90;;;;;;8401147;28;20367;-73
2022/05/13 03:14:41;;;;;;;;;;;12.10;99.90;;;;;;8382662;28;19943;-73
2022/05/13 03:18:42;;;;;;;;;;;12.10;99.90;;;;;;8375307;28;19924;-73
2022/05/13 03:22:44;;;;;;;;;;;12.10;99.90;;;;;;8386333;28;20351;-73
2022/05/13 03:26:46;;;;;;;;;;;12.10;99.90;;;;;;8383451;28;19924;-72
2022/05/13 03:30:49;;;;;;;;;;;12.10;99.90;;;;;;8388685;28;19919;-73
2022/05/13 03:34:51;;;;;;;;;;;12.10;99.90;;;;;;8384421;28;20349;-72
2022/05/13 03:38:52;;;;;;;;;;;12.00;99.90;;;;;;8381548;28;19925;-72
2022/05/13 03:42:54;;;;;;;;;;;12.00;99.90;;;;;;8384599;28;20294;-73
2022/05/13 03:46:55;;;;;;;;;;;12.00;99.90;;;;;;8379222;28;20426;-73
2022/05/13 03:50:57;;;;;;;;;;;12.00;99.90;;;;;;8382050;28;19920;-72
2022/05/13 03:54:59;;;;;;;;;;;12.00;99.90;;;;;;8380279;28;19927;-72
2022/05/13 03:59:02;;;;;;;;;;;12.00;99.90;;;;;;8394649;28;19986;-72
2022/05/13 04:03:04;;;;;;;;;;;12.00;99.90;;;;;;8380188;28;19924;-72
2022/05/13 04:11:27;;;;;;;;;;;12.00;99.90;;;;;;8373721;28;19927;-72
2022/05/13 04:19:49;;;;;;;;;;;12.00;99.90;;;;;;8370179;28;19920;-72
2022/05/13 04:23:52;;;;;;;;;;;12.00;99.90;;;;;;8372899;28;19920;-72
2022/05/13 04:27:54;;;;;;;;;;;11.90;99.90;;;;;;8393023;28;20401;-73
2022/05/13 04:31:56;;;;;;;;;;;11.90;99.90;;;;;;8385877;28;19927;-72
2022/05/13 04:35:58;;;;;;;;;;;11.90;99.90;;;;;;8386052;28;19933;-73
2022/05/13 04:39:59;;;;;;;;;;;11.90;99.90;;;;;;8389235;28;19924;-73
2022/05/13 04:44:02;;;;;;;;;;;12.00;99.90;;;;;;8389593;28;19929;-72
2022/05/13 04:48:17;;;;;;;;;;;12.00;99.90;;;;;;8380144;28;19928;-73
2022/05/13 04:52:18;;;;;;;;;;;12.00;99.90;;;;;;8386975;28;19937;-72
2022/05/13 04:56:21;;;;;;;;;;;12.00;99.90;;;;;;8384640;28;19924;-72
2022/05/13 05:00:22;;;;;;;;;;;12.10;99.90;;;;;;8389712;28;19935;-72
2022/05/13 05:04:24;;;;;;;;;;;12.20;99.90;;;;;;8404537;28;19920;-72
2022/05/13 05:08:26;;;;;;;;;;;12.20;99.90;;;;;;8385068;28;19955;-72
2022/05/13 05:12:28;;;;;;;;;;;12.30;99.90;;;;;;8397427;28;19929;-72
2022/05/13 05:16:29;;;;;;;;;;;12.40;99.90;;;;;;8391251;28;19935;-72
2022/05/13 05:20:31;;;;;;;;;;;12.40;99.90;;;;;;8388358;28;20026;-73
2022/05/13 05:24:32;;;;;;;;;;;12.40;99.90;;;;;;8392113;28;20292;-73
2022/05/13 05:28:37;;;;;;;;;;;12.50;99.90;;;;;;8393617;28;19921;-73
2022/05/13 05:32:39;;;;;;;;;;;12.50;99.90;;;;;;8389637;28;19920;-73
2022/05/13 05:36:41;;;;;;;;;;;12.50;99.90;;;;;;8389108;28;19928;-73
2022/05/13 05:40:43;;;;;;;;;;;12.60;99.90;;;;;;8389527;28;19951;-73
2022/05/13 05:44:45;;;;;;;;;;;12.60;99.90;;;;;;8383068;28;20425;-73
2022/05/13 05:48:46;;;;;;;;;;;12.60;99.90;;;;;;8384620;28;20542;-73
2022/05/13 05:52:48;;;;;;;;;;;12.70;99.90;;;;;;8391669;28;19950;-73
2022/05/13 06:01:12;;;;;;;;;;;12.80;99.90;;;;;;8386626;28;20497;-73
2022/05/13 06:05:14;;;;;;;;;;;12.90;99.90;;;;;;8379643;28;19927;-73
2022/05/13 06:09:15;;;;;;;;;;;12.90;99.90;;;;;;8362636;28;20286;-73
2022/05/13 06:13:17;;;;;;;;;;;13.00;99.90;;;;;;8379420;28;19928;-73
2022/05/13 06:17:18;;;;;;;;;;;13.10;99.90;;;;;;8384179;28;20401;-73
2022/05/13 06:21:20;;;;;;;;;;;13.10;99.90;;;;;;8368918;28;19931;-73
2022/05/13 06:25:22;;;;;;;;;;;13.20;99.90;;;;;;8366588;28;19920;-73
2022/05/13 06:29:25;;;;;;;;;;;13.30;99.90;;;;;;8384871;28;19924;-72
2022/05/13 06:33:27;;;;;;;;;;;13.40;99.90;;;;;;8371528;28;20015;-73
2022/05/13 06:37:29;;;;;;;;;;;13.50;99.90;;;;;;8362914;28;19927;-73
2022/05/13 06:41:31;;;;;;;;;;;13.50;99.90;;;;;;8357729;28;19928;-73
2022/05/13 06:45:32;;;;;;;;;;;13.60;99.90;;;;;;8360971;28;20336;-73
2022/05/13 06:49:34;;;;;;;;;;;13.70;99.90;;;;;;8371195;28;19974;-73
2022/05/13 06:53:36;;;;;;;;;;;13.90;99.90;;;;;;8370931;28;20248;-73
2022/05/13 06:57:37;;;;;;;;;;;13.90;99.90;;;;;;8362486;28;19936;-73
2022/05/13 07:01:39;;;;;;;;;;;13.90;99.90;;;;;;8359207;28;19973;-73
2022/05/13 07:05:41;;;;;;;;;;;14.10;99.90;;;;;;8373010;28;19925;-73
2022/05/13 07:09:43;;;;;;;;;;;14.10;99.90;;;;;;8358829;28;20016;-73
2022/05/13 07:13:44;;;;;;;;;;;14.20;99.90;;;;;;8358251;28;19931;-72
2022/05/13 07:17:47;;;;;;;;;;;14.20;99.90;;;;;;8360372;28;19931;-73
2022/05/13 07:21:50;;;;;;;;;;;14.30;99.90;;;;;;8354899;28;20318;-73
2022/05/13 07:25:52;;;;;;;;;;;14.40;99.90;;;;;;8365499;28;19920;-73
2022/05/13 07:29:54;;;;;;;;;;;14.40;99.90;;;;;;8368842;28;19943;-73
2022/05/13 07:34:01;;;;;;;;;;;14.50;99.90;;;;;;8370267;28;19927;-72
2022/05/13 07:38:02;;;;;;;;;;;14.60;99.90;;;;;;8384266;28;19929;-73
2022/05/13 07:42:05;;;;;;;;;;;14.70;99.90;;;;;;8383638;28;19959;-72
2022/05/13 07:46:07;;;;;;;;;;;14.80;99.90;;;;;;8374186;28;20242;-73
2022/05/13 07:50:10;;;;;;;;;;;14.80;99.90;;;;;;8366616;28;19920;-72
2022/05/13 07:54:13;;;;;;;;;;;14.70;99.90;;;;;;8365618;28;19928;-72
2022/05/13 07:58:16;;;;;;;;;;;14.70;99.90;;;;;;8367527;28;20291;-72
2022/05/13 08:02:18;;;;;;;;;;;14.70;99.90;;;;;;8382040;28;20030;-73
2022/05/13 08:06:19;;;;;;;;;;;15.00;99.90;;;;;;8365673;28;19925;-73
2022/05/13 08:10:21;;;;;;;;;;;15.20;99.90;;;;;;8375194;28;19927;-73
2022/05/13 08:14:23;;;;;;;;;;;15.20;99.90;;;;;;8368526;28;19924;-73
2022/05/13 08:18:24;;;;;;;;;;;15.20;99.90;;;;;;8370808;28;19946;-73
2022/05/13 08:22:26;;;;;;;;;;;15.20;99.90;;;;;;8363557;28;20514;-73
2022/05/13 08:26:27;;;;;;;;;;;15.20;99.90;;;;;;8375724;28;20360;-72
2022/05/13 08:30:29;;;;;;;;;;;15.30;99.90;;;;;;8367561;28;19924;-72
2022/05/13 08:34:30;;;;;;;;;;;15.30;99.90;;;;;;8389069;28;19924;-73
2022/05/13 08:38:34;;;;;;;;;;;15.40;99.90;;;;;;8376264;28;20120;-72
2022/05/13 08:42:41;;;;;;;;;;;15.40;99.90;;;;;;8367356;28;19929;-73
2022/05/13 08:46:46;;;;;;;;;;;15.40;99.90;;;;;;8368605;28;20382;-73
2022/05/13 08:51:21;;;;;;;;;;;15.40;99.90;;;;;;8360171;28;19920;-73
2022/05/13 08:55:24;;;;;;;;;;;15.60;99.90;;;;;;8366382;28;19939;-72
2022/05/13 08:59:25;;;;;;;;;;;15.80;99.90;;;;;;8372939;28;19929;-73
2022/05/13 09:03:27;;;;;;;;;;;15.90;99.90;;;;;;8358379;28;19921;-73
2022/05/13 09:07:29;;;;;;;;;;;16.00;99.90;;;;;;8358748;28;19931;-72
2022/05/13 09:11:32;;;;;;;;;;;16.00;99.90;;;;;;8356384;28;19959;-73
2022/05/13 09:15:42;;;;;;;;;;;16.00;99.90;;;;;;8360857;28;19932;-72
2022/05/13 09:19:52;;;;;;;;;;;16.10;99.90;;;;;;8359837;28;19928;-73
2022/05/13 09:23:54;;;;;;;;;;;16.10;99.90;;;;;;8358562;28;20038;-72
2022/05/13 09:28:00;;;;;;;;;;;16.20;99.90;;;;;;8379323;28;19920;-72
2022/05/13 09:32:07;;;;;;;;;;;16.30;99.90;;;;;;8363745;28;20259;-73
2022/05/13 09:36:29;;;;;;;;;;;16.20;99.90;;;;;;8374330;28;19931;-72
2022/05/13 09:40:33;;;;;;;;;;;16.20;99.90;;;;;;8367124;28;19924;-73
2022/05/13 09:44:34;;;;;;;;;;;16.20;99.90;;;;;;8372445;28;19943;-72
2022/05/13 09:48:38;;;;;;;;;;;16.20;99.90;;;;;;8374245;28;19925;-72
2022/05/13 09:52:42;;;;;;;;;;;16.00;99.90;;;;;;8364597;28;19928;-73
2022/05/13 09:56:48;;;;;;;;;;;16.10;99.90;;;;;;8357683;28;19928;-72
2022/05/13 10:00:58;;;;;;;;;;;16.10;99.90;;;;;;8367514;28;20460;-72
2022/05/13 10:05:11;;;;;;;;;;;16.20;99.90;;;;;;8370903;28;19927;-72
2022/05/13 10:14:03;;;;;;;;;;;16.20;99.90;;;;;;8359616;28;20337;-72
2022/05/13 10:18:04;;;;;;;;;;;16.30;99.90;;;;;;8356356;28;19927;-72
2022/05/13 10:22:24;;;;;;;;;;;16.50;99.90;;;;;;8358739;28;19928;-72
2022/05/13 10:26:29;;;;;;;;;;;16.50;99.90;;;;;;8361858;28;19931;-73
2022/05/13 10:30:37;;;;;;;;;;;16.60;99.90;;;;;;8365576;28;19924;-73
2022/05/13 10:34:41;;;;;;;;;;;16.50;99.90;;;;;;8366595;28;19920;-73
2022/05/13 10:38:46;;;;;;;;;;;16.60;99.90;;;;;;8367340;28;20027;-73
2022/05/13 10:43:11;;;;;;;;;;;16.80;99.90;;;;;;8367403;28;19928;-72
2022/05/13 10:47:16;;;;;;;;;;;16.90;99.90;;;;;;8360131;28;19934;-73
2022/05/13 10:51:34;;;;;;;;;;;17.10;99.90;;;;;;8355733;28;19927;-72
2022/05/13 10:55:36;;;;;;;;;;;17.20;99.90;;;;;;8367871;28;20050;-72
2022/05/13 10:59:53;;;;;;;;;;;17.30;99.90;;;;;;8353579;28;19920;-72
2022/05/13 11:04:01;;;;;;;;;;;17.50;99.90;;;;;;8361116;28;19951;-73
2022/05/13 11:08:06;;;;;;;;;;;17.60;99.90;;;;;;8357738;28;20330;-73
2022/05/13 11:12:14;;;;;;;;;;;17.70;99.90;;;;;;8390547;28;19921;-73
2022/05/13 11:16:26;;;;;;;;;;;17.70;99.90;;;;;;8358307;28;19958;-73
2022/05/13 11:20:30;;;;;;;;;;;17.80;99.90;;;;;;8366313;28;20031;-73
2022/05/13 11:29:17;;;;;;;;;;;17.90;99.90;;;;;;8358393;28;19921;-73
2022/05/13 11:33:21;;;;;;;;;;;17.80;99.90;;;;;;8377811;28;20022;-73
2022/05/13 11:37:24;;;;;;;;;;;17.80;99.90;;;;;;8350764;28;19975;-73
2022/05/13 11:41:33;;;;;;;;;;;18.00;99.90;;;;;;8337763;28;20127;-72
2022/05/13 11:46:00;;;;;;;;;;;18.10;99.90;;;;;;8347741;28;20363;-73
2022/05/13 11:50:03;;;;;;;;;;;18.00;99.90;;;;;;8351448;28;19928;-73
2022/05/13 11:54:05;;;;;;;;;;;18.00;99.90;;;;;;8350655;28;19928;-72
2022/05/13 11:58:07;;;;;;;4.05;1.55;;;18.20;99.90;;;;;;8353028;28;19978;-73
2022/05/13 12:02:13;;;;;;;3.95;1.85;;;18.30;99.90;;;;;;8355826;28;20074;-73
2022/05/13 12:06:15;;;;;;;2.30;1.00;;;18.10;99.90;;;;;;8372550;28;20052;-75
2022/05/13 12:10:22;;;;;;;3.42;1.25;;;18.00;99.90;;;;;;8376250;28;20063;-74
2022/05/13 12:14:50;;;;;;;3.05;1.10;;;17.90;99.90;;;;;;8366252;28;20492;-74
2022/05/13 12:19:20;;;;;;;3.50;1.33;;;17.80;99.90;;;;;;8378005;28;20355;-73
2022/05/13 12:23:31;;;;;;;5.10;2.08;;;17.70;99.90;;;;;;8380817;28;20041;-73
2022/05/13 12:27:46;;;;;;;2.97;1.30;;;17.50;99.90;;;;;;8359258;28;20083;-73
2022/05/13 12:32:16;;;;;;;4.65;1.45;;;17.40;99.90;;;;;;8381112;28;20056;-73
2022/05/13 12:40:55;;;;;;;2.90;1.10;;;17.60;99.90;;;;;;8362070;28;20069;-72
2022/05/13 12:45:00;;;;;;;4.05;1.25;;;17.80;99.90;;;;;;8363677;28;20056;-73
2022/05/13 12:49:09;;;;;;;4.03;1.20;;;17.90;99.90;;;;;;8364316;28;20068;-73
2022/05/13 12:53:29;;;;;;;3.00;1.13;;;18.00;99.90;;;;;;8360043;28;20041;-73
2022/05/13 12:58:05;;;;;;;3.05;0.90;;;18.00;99.90;;;;;;8375326;28;20383;-72
2022/05/13 13:02:08;;;;;;;2.80;0.93;;;18.00;99.60;;;;;;8365112;28;20040;-72
2022/05/13 13:06:16;;;;;;;2.92;1.08;;;18.00;99.90;;;;;;8362694;28;20535;-72
2022/05/13 13:10:21;;;;;;;3.35;1.20;;;18.10;99.90;;;;;;8370927;28;20100;-73
2022/05/13 13:14:46;;;;;;;5.18;1.50;;;18.10;99.50;;;;;;8366674;28;20052;-73
2022/05/13 13:19:11;;;;;;;3.33;1.10;;;18.00;99.20;;;;;;8371027;28;20048;-73
2022/05/13 13:23:15;;;;;;;5.15;1.63;;;18.10;99.90;;;;;;8365257;28;20128;-73
2022/05/13 13:27:20;;;;;;;3.38;1.23;;;18.10;99.40;;;;;;8370810;28;20056;-72
2022/05/13 13:31:24;;;;;;;4.28;1.40;;;18.00;99.50;;;;;;8368448;28;20044;-73
2022/05/13 13:35:33;;;;;;;4.55;1.40;;;18.00;99.40;;;;;;8369926;28;20044;-74
2022/05/13 13:39:35;;;;;;;3.85;1.20;;;17.90;99.10;;;;;;8367182;28;20131;-73
2022/05/13 13:43:36;;;;;;;4.00;1.00;;;18.00;99.40;;;;;;8365168;28;20152;-73
2022/05/13 13:47:45;;;;;;;2.78;1.10;;;18.10;98.20;;;;;;8362846;28;20404;-73
2022/05/13 13:51:52;;;;;;;4.00;1.10;;;18.20;99.20;;;;;;8381591;28;20053;-73
2022/05/13 13:55:59;;;;;;;4.45;1.40;;;18.30;99.20;;;;;;8371050;28;20132;-73
2022/05/13 14:00:04;;;;;;;;;;;18.50;99.20;;;;;;8369116;28;20136;-73
2022/05/13 14:04:14;;;;;;;3.92;1.17;;;18.60;99.60;;;;;;8370861;28;19924;-73
2022/05/13 14:08:17;;;;;;;4.63;1.20;;;18.70;99.60;;;;;;8358229;28;20246;-73
2022/05/13 14:12:21;;;;;;;3.30;1.20;;;18.80;99.80;;;;;;8366194;28;20057;-73
2022/05/13 14:16:52;;;;;;;5.47;1.30;;;18.90;99.20;;;;;;8369519;28;20053;-73
2022/05/13 14:20:56;;;;;;;2.97;1.23;;;18.90;99.60;;;;;;8386305;28;20040;-73
2022/05/13 14:25:06;;;;;;;2.22;1.05;;;19.00;99.90;;;;;;8367339;28;20055;-73
2022/05/13 14:29:12;;;;;;;4.95;1.75;;;19.00;99.90;;;;;;8366558;28;20067;-72
2022/05/13 14:33:16;;;;;;;4.43;1.40;;;19.10;99.90;;;;;;8365785;28;20063;-75
2022/05/13 14:37:30;;;;;;;4.20;1.60;;;19.10;98.30;;;;;;8399127;27;20506;-73
2022/05/13 14:41:38;;;;;;;4.45;1.60;;;19.20;98.20;;;;;;8361363;28;20092;-72
2022/05/13 14:45:42;;;;;;;4.68;1.60;;;19.30;97.90;;;;;;8367866;28;21021;-73
2022/05/13 14:49:44;;;;;;;6.57;1.85;;;19.30;97.00;;;;;;8367250;28;20059;-73
2022/05/13 14:53:59;;;;;;;5.82;2.05;;;19.20;97.50;;;;;;8358846;28;20049;-72
2022/05/13 14:58:15;;;;;;;3.63;1.30;;;19.20;97.80;;;;;;8357611;28;20486;-72
2022/05/13 15:02:38;;;;;;;3.38;1.40;;;19.20;98.10;;;;;;8355250;28;20701;-72
2022/05/13 15:06:46;;;;;;;3.15;1.45;;;19.30;97.80;;;;;;8357562;28;20067;-72
2022/05/13 15:10:48;;;;;;;4.55;1.35;;;19.30;97.60;;;;;;8374309;28;20044;-72
2022/05/13 15:14:50;;;;;;;4.75;1.45;;;19.40;97.80;;;;;;8355050;28;20045;-72
2022/05/13 15:18:51;;;;;;;2.38;1.10;;;19.40;97.40;;;;;;8356855;28;20041;-72
2022/05/13 15:22:54;;;;;;;3.22;1.20;;;19.40;97.20;;;;;;8346197;28;20077;-72
2022/05/13 15:27:04;;;;;;;3.78;1.20;;;19.60;97.20;;;;;;8353094;28;20048;-72
2022/05/13 15:31:06;;;;;;;3.28;1.08;;;19.70;96.90;;;;;;8353408;28;20397;-72
2022/05/13 15:35:08;;;;;;;2.65;1.08;;;19.80;97.20;;;;;;8355438;28;20052;-72
2022/05/13 15:39:11;;;;;;;4.10;1.40;;;19.90;96.20;;;;;;8363532;28;20057;-72
2022/05/13 15:43:14;;;;;;;5.00;1.20;;;20.10;96.30;;;;;;8366433;28;20048;-72
2022/05/13 15:47:25;;;;;;;4.10;1.30;;;20.30;97.00;;;;;;8365052;28;20064;-72
2022/05/13 15:56:11;;;;;;;4.20;1.60;;;21.10;97.00;;;;;;8355544;28;20045;-72
2022/05/13 16:00:18;;;;;;;3.22;1.17;;;21.40;96.90;;;;;;8361301;28;20071;-72
2022/05/13 16:04:20;;;;;;;6.07;1.50;;;21.60;96.90;;;;;;8375675;28;20040;-72
2022/05/13 16:08:21;;;;;;;4.63;1.20;;;21.90;95.00;;;;;;8357170;28;20484;-72
2022/05/13 16:12:32;;;;;;;3.83;1.20;;;22.10;93.50;;;;;;8359756;28;20757;-72
2022/05/13 16:16:36;;;;;;;;;;;22.20;95.00;;;;;;8354199;28;20056;-72
2022/05/13 16:20:38;;;;;;;;;;;22.40;96.70;;;;;;8355333;28;19948;-72
2022/05/13 16:24:40;;;;;;;;;;;22.80;95.70;;;;;;8360564;28;19929;-72
2022/05/13 16:28:42;;;;;;;;;;;22.80;94.10;;;;;;8363787;28;21116;-72
2022/05/13 16:32:44;;;;;;;;;;;22.70;93.60;;;;;;8362172;28;19928;-72
2022/05/13 16:41:06;;;;;;;;;;;22.70;94.30;;;;;;8365219;28;20211;-72
2022/05/13 16:45:09;;;;;;;;;;;22.70;94.10;;;;;;8374622;28;19924;-72
2022/05/13 16:49:10;;;;;;;;;;;22.80;94.40;;;;;;8356839;28;19931;-72
2022/05/13 16:53:12;;;;;;;;;;;22.70;94.20;;;;;;8359259;28;20284;-73
2022/05/13 16:57:14;;;;;;;;;;;22.50;92.70;;;;;;8361206;28;20500;-72
2022/05/13 17:01:16;;;;;;;;;;;22.20;94.80;;;;;;8360481;28;19931;-72
2022/05/13 17:05:17;;;;;;;;;;;22.20;94.40;;;;;;8361463;28;19966;-72
2022/05/13 17:18:06;;;;;;;;;;;22.20;94.90;;;;;;8359603;28;19968;-72
2022/05/13 17:22:08;;;;;;;;;;;22.10;94.50;;;;;;8357326;28;20075;-72
2022/05/13 17:26:10;;;;;;;;;;;22.00;94.20;;;;;;8366961;28;19993;-72
2022/05/13 17:30:13;;;;;;;;;;;21.60;94.30;;;;;;8361466;28;20034;-72
2022/05/13 17:34:15;;;;;;;;;;;21.10;93.90;;;;;;8357288;28;19929;-72
2022/05/13 17:38:17;;;;;;;;;;;20.70;93.90;;;;;;8370195;28;20295;-71
2022/05/13 17:42:19;;;;;;;;;;;20.40;94.30;;;;;;8367916;28;20491;-72
2022/05/13 17:46:20;;;;;;;2.88;1.05;;;20.50;94.60;;;;;;8369513;28;20080;-71
2022/05/13 17:50:22;;;;;;;4.40;1.25;;;20.40;94.30;;;;;;8362815;28;20052;-72
2022/05/13 17:54:26;;;;;;;5.28;1.33;;;20.30;94.10;;;;;;8359645;28;20037;-71
2022/05/13 17:58:28;;;;;;;4.22;1.40;;;20.20;94.00;;;;;;8390102;28;20052;-72
2022/05/13 18:02:29;;;;;;;6.90;1.67;;;19.90;93.70;;;;;;8372142;28;20072;-72
2022/05/13 18:06:32;;;;;;;5.22;1.20;;;19.70;93.60;;;;;;8367625;28;20071;-72
2022/05/13 18:10:34;;;;;;;4.43;1.00;;;19.50;93.70;;;;;;8358014;28;20049;-72
2022/05/13 18:14:37;;;;;;;3.70;1.27;;;19.50;93.70;;;;;;8358767;28;20095;-72
2022/05/13 18:18:39;;;;;;;3.47;1.10;;;19.50;93.80;;;;;;8359033;28;19963;-72
2022/05/13 18:22:41;;;;;;;3.22;1.17;;;19.70;94.00;;;;;;8355463;28;20059;-71
2022/05/13 18:26:42;;;;;;;3.63;1.20;;;19.70;93.90;;;;;;8356091;28;20534;-71
2022/05/13 18:30:45;;;;;;;4.47;1.10;;;19.60;93.60;;;;;;8376928;28;21071;-71
2022/05/13 18:34:47;;;;;;;;;;;19.30;93.30;;;;;;8356554;28;20131;-72
2022/05/13 18:38:49;;;;;;;;;;;19.00;93.00;;;;;;8360515;28;20356;-71
2022/05/13 18:47:11;;;;;;;;;;;18.70;93.10;;;;;;8371283;28;19980;-72
2022/05/13 18:51:15;;;;;;;;;;;18.50;93.00;;;;;;8369003;28;19924;-73
2022/05/13 18:55:16;;;;;;;;;;;18.40;92.80;;;;;;8374190;28;19928;-72
2022/05/13 18:59:18;;;;;;;;;;;18.20;92.60;;;;;;8375574;28;19933;-72
2022/05/13 19:03:24;;;;;;;;;;;18.10;92.50;;;;;;8376228;28;19954;-72
2022/05/13 19:07:26;;;;;;;;;;;18.00;92.40;;;;;;8373739;28;20022;-72
2022/05/13 19:11:28;;;;;;;;;;;17.90;92.30;;;;;;8374341;28;20585;-72
2022/05/13 19:15:29;;;;;;;;;;;17.70;92.30;;;;;;8374132;28;19925;-72
2022/05/13 19:19:35;;;;;;;;;;;17.70;92.40;;;;;;8374086;28;19948;-72
2022/05/13 19:23:38;;;;;;;;;;;17.60;92.40;;;;;;8376881;28;19931;-72
2022/05/13 19:27:39;;;;;;;;;;;17.50;92.20;;;;;;8367150;28;20000;-72
2022/05/13 19:31:41;;;;;;;;;;;17.50;92.10;;;;;;8383813;28;19924;-73
2022/05/13 19:35:43;;;;;;;;;;;17.40;92.10;;;;;;8366805;28;19933;-72
2022/05/13 19:39:45;;;;;;;;;;;17.30;92.10;;;;;;8379470;28;19931;-71
2022/05/13 19:43:46;;;;;;;;;;;17.20;92.20;;;;;;8367210;28;19924;-72
2022/05/13 19:47:48;;;;;;;;;;;17.20;92.30;;;;;;8368681;28;19931;-71
2022/05/13 19:51:51;;;;;;;;;;;17.20;92.40;;;;;;8369023;28;19925;-72
2022/05/13 19:55:53;;;;;;;;;;;17.10;92.40;;;;;;8363794;28;20292;-72
2022/05/13 19:59:55;;;;;;;;;;;16.90;92.30;;;;;;8370373;28;19968;-71
2022/05/13 20:03:56;;;;;;;;;;;16.80;92.30;;;;;;8377171;28;20004;-71
2022/05/13 20:12:18;;;;;;;;;;;16.50;92.60;;;;;;8375439;28;21697;-72
2022/05/13 20:16:21;;;;;;;;;;;16.40;92.60;;;;;;8369678;28;19928;-72
2022/05/13 20:24:43;;;;;;;;;;;16.30;92.60;;;;;;8379243;28;20304;-72
2022/05/13 20:28:45;;;;;;;;;;;16.20;92.80;;;;;;8376839;28;19969;-72
2022/05/13 20:32:47;;;;;;;;;;;16.20;92.90;;;;;;8376597;28;20307;-72
2022/05/13 20:36:48;;;;;;;;;;;16.20;93.00;;;;;;8376146;28;20011;-72
2022/05/13 20:40:50;;;;;;;;;;;16.10;93.00;;;;;;8379452;28;19925;-71
2022/05/13 20:44:52;;;;;;;;;;;16.00;92.90;;;;;;8379713;28;19925;-72
2022/05/13 20:48:53;;;;;;;;;;;15.90;93.00;;;;;;8374048;28;19924;-72
2022/05/13 20:52:55;;;;;;;;;;;15.80;93.00;;;;;;8371821;28;19928;-72
2022/05/13 20:56:57;;;;;;;;;;;15.60;93.00;;;;;;8371031;28;20050;-72
2022/05/13 21:00:58;;;;;;;;;;;15.50;93.00;;;;;;8364959;28;19991;-72
2022/05/13 21:05:02;;;;;;;;;;;15.40;93.00;;;;;;8387866;28;19924;-71
2022/05/13 21:09:03;;;;;;;;;;;15.40;93.00;;;;;;8387194;28;19940;-72
2022/05/13 21:13:05;;;;;;;;;;;15.30;93.10;;;;;;8390100;28;19943;-72
2022/05/13 21:17:07;;;;;;;;;;;15.30;93.10;;;;;;8385865;28;19924;-72
2022/05/13 21:21:09;;;;;;;;;;;15.30;93.30;;;;;;8390655;28;19963;-72
2022/05/13 21:25:11;;;;;;;;;;;15.20;93.30;;;;;;8387412;28;20459;-71
2022/05/13 21:29:13;;;;;;;;;;;15.20;93.20;;;;;;8412600;28;20349;-71
2022/05/13 21:37:35;;;;;;;;;;;15.00;93.20;;;;;;8393419;28;19928;-72
2022/05/13 21:41:40;;;;;;;;;;;14.90;93.30;;;;;;8415735;27;19928;-71
2022/05/13 21:45:42;;;;;;;;;;;14.80;93.30;;;;;;8385485;28;19924;-72
2022/05/13 21:49:43;;;;;;;;;;;14.60;93.30;;;;;;8386360;28;19924;-71
2022/05/13 21:53:45;;;;;;;;;;;14.60;93.40;;;;;;8380008;28;20556;-72
2022/05/13 21:57:47;;;;;;;;;;;14.50;93.40;;;;;;8396379;28;19936;-71
2022/05/13 22:01:48;;;;;;;;;;;14.50;93.40;;;;;;8388216;28;20035;-72
2022/05/13 22:05:50;;;;;;;;;;;14.50;93.40;;;;;;8385913;28;19986;-72
2022/05/13 22:09:52;;;;;;;;;;;14.40;93.40;;;;;;8384163;28;19972;-72
2022/05/13 22:13:53;;;;;;;;;;;14.40;93.40;;;;;;8382148;28;19924;-72
2022/05/13 22:17:55;;;;;;;;;;;14.40;93.40;;;;;;8389635;28;22063;-72
2022/05/13 22:21:56;;;;;;;;;;;14.30;93.80;;;;;;8381947;28;19929;-71
2022/05/13 22:25:58;;;;;;;;;;;14.20;93.60;;;;;;8388506;28;19935;-72
2022/05/13 22:30:00;;;;;;;;;;;14.10;93.60;;;;;;8384427;28;19925;-72
2022/05/13 22:34:02;;;;;;;;;;;14.10;93.40;;;;;;8378858;28;19924;-72
2022/05/13 22:38:04;;;;;;;;;;;14.00;93.70;;;;;;8379999;28;19925;-72
2022/05/13 22:42:05;;;;;;;;;;;13.90;94.10;;;;;;8395812;28;19933;-72
2022/05/13 22:46:07;;;;;;;;;;;13.80;93.80;;;;;;8397024;28;19935;-71
2022/05/13 22:50:10;;;;;;;;;;;13.80;94.20;;;;;;8388797;28;19928;-71
2022/05/13 22:54:12;;;;;;;;;;;13.70;94.20;;;;;;8380684;28;19932;-71
2022/05/13 22:58:14;;;;;;;;;;;13.70;93.70;;;;;;8385519;28;19924;-72
2022/05/13 23:02:15;;;;;;;;;;;13.70;93.80;;;;;;8385308;28;19928;-71
2022/05/13 23:14:57;;;;;;;;;;;13.60;94.20;;;;;;8390759;28;19947;-72
2022/05/13 23:19:00;;;;;;;;;;;13.60;94.30;;;;;;8390809;28;19925;-71
2022/05/13 23:23:02;;;;;;;;;;;13.60;94.60;;;;;;8382790;28;20296;-71
2022/05/13 23:27:04;;;;;;;;;;;13.60;94.50;;;;;;8377756;28;20008;-72
2022/05/13 23:31:05;;;;;;;;;;;13.70;94.50;;;;;;8412059;28;19924;-71
2022/05/13 23:35:07;;;;;;;;;;;13.60;94.50;;;;;;8393733;28;19929;-72
2022/05/13 23:39:09;;;;;;;;;;;13.60;94.50;;;;;;8385348;28;20368;-71
2022/05/13 23:43:10;;;;;;;;;;;13.50;95.00;;;;;;8412301;28;19931;-71
2022/05/13 23:47:12;;;;;;;;;;;13.50;95.10;;;;;;8399022;28;20292;-72
2022/05/13 23:51:14;;;;;;;;;;;13.50;95.20;;;;;;8394414;28;19962;-72
2022/05/13 23:59:35;;;;;;;;;;;13.40;95.50;;;;;;8392592;28;20398;-71
